Main page
METAR-TAF:

METAR-TAF

Airports :

Darwin International Airport

Darwin, Australia

latitude: 12-24S, longitude: 130-52E, elevation: 31 m

Current weather observation

The report was made 28 minutes ago, at 05:00 UTC
Wind 11 kt from the East
Temperature 34°C
Humidity 39%
Pressure 1008 hPa
Visibility 10 km or more
no clouds below 1500 m and no cumulonimbus

METAR: YPDN 240500Z 10011KT CAVOK 34/18 Q1008 NOSIG

Time: 14:58 (05:28 UTC)

Forecast

The report was made 6 hours and 25 minutes ago, at 23:03 UTC
Forecast valid from 24 at 00 UTC to 25 at 06 UTC
Wind 12 kt from the East/Southeast
Visibility 10 km or more
no clouds below 1500 m and no cumulonimbus
From 24 at 0900 UTC
Wind 6 kt from the East/Northeast
Visibility 10 km or more
no clouds below 1500 m and no cumulonimbus
From 25 at 0000 UTC
Wind 10 kt from the East/Southeast
Visibility 10 km or more
no clouds below 1500 m and no cumulonimbus

TAF: YPDN 232303Z 2400/2506 11012KT CAVOK FM240900 06006KT CAVOK FM250000 11010KT CAVOK

Weather observations and forecasts of more than 4000 airports (METAR and TAF reports).

The available stations are represented by yellow and red dots on the map.

Hover mouse over dot to see the name of the station.

Then click to see weather observations and forecasts.

To change the map : click on the green buttons with a black cross to zoom in, on the green button with a dash to zoom out, or on the green arrows for adjacent maps.


METAR-TAF: